sensor_id;sensor_type;location;lat;lon;timestamp;pressure;altitude;pressure_sealevel;temperature;humidity
16806;BME280;8520;50.102;20.010;2022-08-21T00:00:52;97736.31;;;21.38;98.36
16806;BME280;8520;50.102;20.010;2022-08-21T00:03:40;97748.19;;;20.85;100.00
16806;BME280;8520;50.102;20.010;2022-08-21T00:06:29;97746.69;;;20.84;100.00
16806;BME280;8520;50.102;20.010;2022-08-21T00:09:18;97737.03;;;21.08;100.00
16806;BME280;8520;50.102;20.010;2022-08-21T00:12:08;97734.22;;;21.16;100.00
16806;BME280;8520;50.102;20.010;2022-08-21T00:14:57;97733.09;;;20.96;100.00
16806;BME280;8520;50.102;20.010;2022-08-21T00:17:46;97730.84;;;20.87;100.00
16806;BME280;8520;50.102;20.010;2022-08-21T00:20:35;97727.19;;;20.56;100.00
16806;BME280;8520;50.102;20.010;2022-08-21T00:23:24;97723.78;;;20.42;100.00
16806;BME280;8520;50.102;20.010;2022-08-21T00:26:13;97726.16;;;20.30;100.00
16806;BME280;8520;50.102;20.010;2022-08-21T00:29:03;97727.53;;;20.08;100.00
16806;BME280;8520;50.102;20.010;2022-08-21T00:31:51;97727.75;;;20.18;100.00
16806;BME280;8520;50.102;20.010;2022-08-21T00:34:40;97731.72;;;20.23;100.00
16806;BME280;8520;50.102;20.010;2022-08-21T00:37:28;97716.16;;;20.06;100.00
16806;BME280;8520;50.102;20.010;2022-08-21T00:40:26;97707.13;;;19.93;100.00
16806;BME280;8520;50.102;20.010;2022-08-21T00:43:18;97717.00;;;20.30;100.00
16806;BME280;8520;50.102;20.010;2022-08-21T00:46:08;97714.69;;;19.77;100.00
16806;BME280;8520;50.102;20.010;2022-08-21T00:48:56;97707.69;;;19.91;100.00
16806;BME280;8520;50.102;20.010;2022-08-21T00:51:49;97699.53;;;20.01;100.00
16806;BME280;8520;50.102;20.010;2022-08-21T00:54:39;97701.06;;;20.53;100.00
16806;BME280;8520;50.102;20.010;2022-08-21T00:57:36;97693.69;;;20.27;100.00
16806;BME280;8520;50.102;20.010;2022-08-21T01:00:30;97701.53;;;19.93;100.00
16806;BME280;8520;50.102;20.010;2022-08-21T01:03:22;97692.47;;;19.71;100.00
16806;BME280;8520;50.102;20.010;2022-08-21T01:06:12;97692.16;;;19.82;100.00
16806;BME280;8520;50.102;20.010;2022-08-21T01:09:00;97692.56;;;19.86;100.00
16806;BME280;8520;50.102;20.010;2022-08-21T01:11:49;97689.19;;;20.24;100.00
16806;BME280;8520;50.102;20.010;2022-08-21T01:14:38;97682.75;;;20.44;100.00
16806;BME280;8520;50.102;20.010;2022-08-21T01:17:28;97689.03;;;20.37;100.00
16806;BME280;8520;50.102;20.010;2022-08-21T01:20:19;97691.19;;;20.52;100.00
16806;BME280;8520;50.102;20.010;2022-08-21T01:23:09;97685.47;;;20.96;100.00
16806;BME280;8520;50.102;20.010;2022-08-21T01:25:57;97686.38;;;20.83;100.00
16806;BME280;8520;50.102;20.010;2022-08-21T01:28:49;97686.91;;;20.59;100.00
16806;BME280;8520;50.102;20.010;2022-08-21T01:31:40;97684.72;;;20.80;100.00
16806;BME280;8520;50.102;20.010;2022-08-21T01:34:28;97681.13;;;20.49;100.00
16806;BME280;8520;50.102;20.010;2022-08-21T01:37:18;97686.78;;;20.28;100.00
16806;BME280;8520;50.102;20.010;2022-08-21T01:40:10;97679.34;;;20.38;100.00
16806;BME280;8520;50.102;20.010;2022-08-21T01:42:59;97668.09;;;20.90;100.00
16806;BME280;8520;50.102;20.010;2022-08-21T01:45:47;97664.69;;;20.53;100.00
16806;BME280;8520;50.102;20.010;2022-08-21T01:48:36;97658.41;;;20.16;100.00
16806;BME280;8520;50.102;20.010;2022-08-21T01:51:25;97658.75;;;20.72;100.00
16806;BME280;8520;50.102;20.010;2022-08-21T01:54:14;97647.56;;;21.18;100.00
16806;BME280;8520;50.102;20.010;2022-08-21T01:57:04;97653.19;;;21.33;99.23
16806;BME280;8520;50.102;20.010;2022-08-21T01:59:53;97649.97;;;20.83;100.00
16806;BME280;8520;50.102;20.010;2022-08-21T02:02:41;97650.31;;;20.57;100.00
16806;BME280;8520;50.102;20.010;2022-08-21T02:05:30;97651.03;;;20.42;100.00
16806;BME280;8520;50.102;20.010;2022-08-21T02:08:19;97654.25;;;20.10;100.00
16806;BME280;8520;50.102;20.010;2022-08-21T02:11:10;97650.34;;;20.05;100.00
16806;BME280;8520;50.102;20.010;2022-08-21T02:13:59;97646.97;;;20.66;100.00
16806;BME280;8520;50.102;20.010;2022-08-21T02:16:48;97653.72;;;21.09;100.00
16806;BME280;8520;50.102;20.010;2022-08-21T02:19:51;97646.28;;;20.88;100.00
16806;BME280;8520;50.102;20.010;2022-08-21T02:22:39;97644.41;;;21.14;100.00
16806;BME280;8520;50.102;20.010;2022-08-21T02:25:29;97639.16;;;20.80;100.00
16806;BME280;8520;50.102;20.010;2022-08-21T02:28:17;97641.72;;;20.47;100.00
16806;BME280;8520;50.102;20.010;2022-08-21T02:31:07;97634.97;;;20.35;100.00
16806;BME280;8520;50.102;20.010;2022-08-21T02:33:56;97626.31;;;20.10;100.00
16806;BME280;8520;50.102;20.010;2022-08-21T02:36:44;97625.53;;;20.84;100.00
16806;BME280;8520;50.102;20.010;2022-08-21T02:39:45;97620.28;;;21.26;100.00
16806;BME280;8520;50.102;20.010;2022-08-21T02:42:34;97617.88;;;21.07;100.00
16806;BME280;8520;50.102;20.010;2022-08-21T02:45:22;97626.66;;;21.34;99.01
16806;BME280;8520;50.102;20.010;2022-08-21T02:48:14;97615.06;;;21.38;98.89
16806;BME280;8520;50.102;20.010;2022-08-21T02:51:10;97618.97;;;20.66;100.00
16806;BME280;8520;50.102;20.010;2022-08-21T02:53:59;97610.78;;;20.76;100.00
16806;BME280;8520;50.102;20.010;2022-08-21T02:56:48;97619.38;;;21.08;99.94
16806;BME280;8520;50.102;20.010;2022-08-21T02:59:36;97617.13;;;21.22;98.83
16806;BME280;8520;50.102;20.010;2022-08-21T03:02:25;97621.81;;;21.35;99.07
16806;BME280;8520;50.102;20.010;2022-08-21T03:05:16;97618.81;;;21.33;99.21
16806;BME280;8520;50.102;20.010;2022-08-21T03:08:06;97621.78;;;21.19;99.04
16806;BME280;8520;50.102;20.010;2022-08-21T03:10:56;97618.59;;;21.53;97.61
16806;BME280;8520;50.102;20.010;2022-08-21T03:13:46;97626.81;;;21.59;97.40
16806;BME280;8520;50.102;20.010;2022-08-21T03:16:35;97630.72;;;21.56;96.90
16806;BME280;8520;50.102;20.010;2022-08-21T03:19:23;97639.53;;;21.45;98.36
16806;BME280;8520;50.102;20.010;2022-08-21T03:22:13;97647.19;;;21.37;98.39
16806;BME280;8520;50.102;20.010;2022-08-21T03:25:03;97647.38;;;21.00;99.92
16806;BME280;8520;50.102;20.010;2022-08-21T03:27:52;97647.19;;;20.76;100.00
16806;BME280;8520;50.102;20.010;2022-08-21T03:30:47;97644.94;;;20.66;100.00
16806;BME280;8520;50.102;20.010;2022-08-21T03:33:36;97647.34;;;20.55;100.00
16806;BME280;8520;50.102;20.010;2022-08-21T03:36:25;97641.41;;;20.73;100.00
16806;BME280;8520;50.102;20.010;2022-08-21T03:39:16;97649.59;;;20.64;100.00
16806;BME280;8520;50.102;20.010;2022-08-21T03:42:05;97649.88;;;20.37;100.00
16806;BME280;8520;50.102;20.010;2022-08-21T03:44:53;97655.88;;;19.90;100.00
16806;BME280;8520;50.102;20.010;2022-08-21T03:47:51;97660.88;;;19.55;100.00
16806;BME280;8520;50.102;20.010;2022-08-21T03:50:42;97651.44;;;20.02;100.00
16806;BME280;8520;50.102;20.010;2022-08-21T03:53:31;97647.84;;;19.86;100.00
16806;BME280;8520;50.102;20.010;2022-08-21T03:56:21;97648.63;;;19.95;100.00
16806;BME280;8520;50.102;20.010;2022-08-21T03:59:09;97656.31;;;20.09;100.00
16806;BME280;8520;50.102;20.010;2022-08-21T04:02:00;97657.75;;;19.95;100.00
16806;BME280;8520;50.102;20.010;2022-08-21T04:04:49;97657.63;;;20.08;100.00
16806;BME280;8520;50.102;20.010;2022-08-21T04:07:37;97663.09;;;20.22;100.00
16806;BME280;8520;50.102;20.010;2022-08-21T04:10:27;97667.22;;;19.84;100.00
16806;BME280;8520;50.102;20.010;2022-08-21T04:13:17;97667.75;;;19.83;100.00
16806;BME280;8520;50.102;20.010;2022-08-21T04:16:06;97665.94;;;19.93;100.00
16806;BME280;8520;50.102;20.010;2022-08-21T04:18:55;97672.22;;;20.22;100.00
16806;BME280;8520;50.102;20.010;2022-08-21T04:21:43;97670.66;;;20.06;100.00
16806;BME280;8520;50.102;20.010;2022-08-21T04:24:32;97684.47;;;19.68;100.00
16806;BME280;8520;50.102;20.010;2022-08-21T04:27:20;97681.22;;;19.92;100.00
16806;BME280;8520;50.102;20.010;2022-08-21T04:30:11;97677.53;;;19.97;100.00
16806;BME280;8520;50.102;20.010;2022-08-21T04:33:01;97683.72;;;20.03;100.00
16806;BME280;8520;50.102;20.010;2022-08-21T04:35:50;97683.72;;;20.03;100.00
16806;BME280;8520;50.102;20.010;2022-08-21T04:38:39;97683.06;;;19.89;100.00
16806;BME280;8520;50.102;20.010;2022-08-21T04:41:30;97683.56;;;20.16;100.00
16806;BME280;8520;50.102;20.010;2022-08-21T04:44:19;97685.47;;;20.29;100.00
16806;BME280;8520;50.102;20.010;2022-08-21T04:47:09;97684.66;;;20.57;100.00
16806;BME280;8520;50.102;20.010;2022-08-21T04:49:57;97684.00;;;20.95;100.00
16806;BME280;8520;50.102;20.010;2022-08-21T04:52:46;97681.75;;;21.16;100.00
16806;BME280;8520;50.102;20.010;2022-08-21T04:55:35;97676.34;;;21.26;100.00
16806;BME280;8520;50.102;20.010;2022-08-21T04:58:26;97681.94;;;21.11;100.00
16806;BME280;8520;50.102;20.010;2022-08-21T05:01:24;97679.53;;;21.22;100.00
16806;BME280;8520;50.102;20.010;2022-08-21T05:04:18;97678.38;;;21.10;100.00
16806;BME280;8520;50.102;20.010;2022-08-21T05:07:11;97690.38;;;21.49;99.93
16806;BME280;8520;50.102;20.010;2022-08-21T05:10:00;97687.16;;;21.68;98.36
16806;BME280;8520;50.102;20.010;2022-08-21T05:12:49;97686.22;;;21.57;99.14
16806;BME280;8520;50.102;20.010;2022-08-21T05:15:38;97692.94;;;21.77;97.94
16806;BME280;8520;50.102;20.010;2022-08-21T05:18:26;97693.44;;;21.91;97.05
16806;BME280;8520;50.102;20.010;2022-08-21T05:21:16;97689.50;;;21.94;97.49
16806;BME280;8520;50.102;20.010;2022-08-21T05:24:04;97688.22;;;21.88;97.05
16806;BME280;8520;50.102;20.010;2022-08-21T05:26:53;97696.50;;;21.70;98.18
16806;BME280;8520;50.102;20.010;2022-08-21T05:29:42;97700.19;;;21.88;97.51
16806;BME280;8520;50.102;20.010;2022-08-21T05:32:30;97693.44;;;21.91;97.33
16806;BME280;8520;50.102;20.010;2022-08-21T05:35:18;97693.97;;;22.05;97.37
16806;BME280;8520;50.102;20.010;2022-08-21T05:38:08;97691.53;;;22.01;96.90
16806;BME280;8520;50.102;20.010;2022-08-21T05:41:04;97689.59;;;22.27;96.12
16806;BME280;8520;50.102;20.010;2022-08-21T05:43:53;97698.03;;;22.27;95.99
16806;BME280;8520;50.102;20.010;2022-08-21T05:46:41;97698.47;;;22.08;97.41
16806;BME280;8520;50.102;20.010;2022-08-21T05:49:29;97702.50;;;22.30;96.19
16806;BME280;8520;50.102;20.010;2022-08-21T05:52:19;97687.97;;;22.56;95.22
16806;BME280;8520;50.102;20.010;2022-08-21T05:55:09;97697.97;;;22.42;95.40
16806;BME280;8520;50.102;20.010;2022-08-21T05:57:58;97695.25;;;22.59;94.91
16806;BME280;8520;50.102;20.010;2022-08-21T06:00:48;97691.59;;;22.41;95.36
16806;BME280;8520;50.102;20.010;2022-08-21T06:03:39;97706.59;;;22.36;95.13
16806;BME280;8520;50.102;20.010;2022-08-21T06:06:27;97700.75;;;22.50;95.77
16806;BME280;8520;50.102;20.010;2022-08-21T06:09:16;97705.41;;;21.92;97.52
16806;BME280;8520;50.102;20.010;2022-08-21T06:12:08;97691.22;;;21.90;98.37
16806;BME280;8520;50.102;20.010;2022-08-21T06:14:56;97706.38;;;21.86;98.11
16806;BME280;8520;50.102;20.010;2022-08-21T06:17:45;97697.72;;;22.00;99.34
16806;BME280;8520;50.102;20.010;2022-08-21T06:20:34;97687.13;;;22.38;95.63
16806;BME280;8520;50.102;20.010;2022-08-21T06:23:23;97698.97;;;22.62;94.40
16806;BME280;8520;50.102;20.010;2022-08-21T06:26:19;97702.56;;;22.55;94.75
16806;BME280;8520;50.102;20.010;2022-08-21T06:29:09;97695.25;;;22.59;95.29
16806;BME280;8520;50.102;20.010;2022-08-21T06:31:59;97695.84;;;22.83;93.79
16806;BME280;8520;50.102;20.010;2022-08-21T06:34:48;97696.00;;;22.92;93.78
16806;BME280;8520;50.102;20.010;2022-08-21T06:37:36;97695.44;;;22.94;93.54
16806;BME280;8520;50.102;20.010;2022-08-21T06:40:25;97697.94;;;22.50;94.51
16806;BME280;8520;50.102;20.010;2022-08-21T06:43:16;97706.69;;;22.13;97.12
16806;BME280;8520;50.102;20.010;2022-08-21T06:46:06;97700.44;;;22.70;94.29
16806;BME280;8520;50.102;20.010;2022-08-21T06:48:55;97699.44;;;22.76;94.74
16806;BME280;8520;50.102;20.010;2022-08-21T06:51:44;97701.34;;;22.73;94.06
16806;BME280;8520;50.102;20.010;2022-08-21T06:54:32;97708.22;;;22.87;93.70
16806;BME280;8520;50.102;20.010;2022-08-21T06:57:20;97709.94;;;22.75;94.16
16806;BME280;8520;50.102;20.010;2022-08-21T07:00:10;97711.50;;;23.26;91.99
16806;BME280;8520;50.102;20.010;2022-08-21T07:03:01;97714.59;;;22.80;93.57
16806;BME280;8520;50.102;20.010;2022-08-21T07:05:50;97713.56;;;23.25;91.80
16806;BME280;8520;50.102;20.010;2022-08-21T07:08:39;97718.25;;;23.48;90.58
16806;BME280;8520;50.102;20.010;2022-08-21T07:11:27;97716.22;;;23.66;89.75
16806;BME280;8520;50.102;20.010;2022-08-21T07:14:16;97730.91;;;22.74;92.98
16806;BME280;8520;50.102;20.010;2022-08-21T07:17:06;97718.72;;;23.12;92.85
16806;BME280;8520;50.102;20.010;2022-08-21T07:19:56;97718.72;;;23.62;90.49
16806;BME280;8520;50.102;20.010;2022-08-21T07:22:45;97722.38;;;23.47;90.22
16806;BME280;8520;50.102;20.010;2022-08-21T07:25:33;97725.78;;;23.45;90.49
16806;BME280;8520;50.102;20.010;2022-08-21T07:28:22;97728.50;;;23.03;92.29
16806;BME280;8520;50.102;20.010;2022-08-21T07:31:13;97713.16;;;23.04;91.74
16806;BME280;8520;50.102;20.010;2022-08-21T07:34:02;97724.91;;;23.10;92.94
16806;BME280;8520;50.102;20.010;2022-08-21T07:36:52;97723.84;;;23.73;90.41
16806;BME280;8520;50.102;20.010;2022-08-21T07:39:41;97724.47;;;23.89;89.01
16806;BME280;8520;50.102;20.010;2022-08-21T07:42:29;97723.44;;;23.94;88.78
16806;BME280;8520;50.102;20.010;2022-08-21T07:45:19;97726.94;;;23.84;88.91
16806;BME280;8520;50.102;20.010;2022-08-21T07:48:08;97726.81;;;23.33;91.21
16806;BME280;8520;50.102;20.010;2022-08-21T07:50:58;97717.56;;;23.40;89.89
16806;BME280;8520;50.102;20.010;2022-08-21T07:53:49;97724.06;;;23.00;92.63
16806;BME280;8520;50.102;20.010;2022-08-21T07:56:38;97721.78;;;23.06;92.85
16806;BME280;8520;50.102;20.010;2022-08-21T07:59:27;97715.31;;;23.63;90.68
16806;BME280;8520;50.102;20.010;2022-08-21T08:02:23;97723.66;;;23.96;89.48
16806;BME280;8520;50.102;20.010;2022-08-21T08:05:11;97721.81;;;23.91;88.89
16806;BME280;8520;50.102;20.010;2022-08-21T08:08:00;97717.75;;;23.84;88.70
16806;BME280;8520;50.102;20.010;2022-08-21T08:10:50;97718.13;;;23.63;89.69
16806;BME280;8520;50.102;20.010;2022-08-21T08:13:39;97714.63;;;24.15;88.15
16806;BME280;8520;50.102;20.010;2022-08-21T08:16:28;97710.25;;;24.65;86.42
16806;BME280;8520;50.102;20.010;2022-08-21T08:19:16;97718.25;;;24.42;87.41
16806;BME280;8520;50.102;20.010;2022-08-21T08:22:12;97715.09;;;24.21;86.63
16806;BME280;8520;50.102;20.010;2022-08-21T08:25:01;97718.66;;;24.04;88.60
16806;BME280;8520;50.102;20.010;2022-08-21T08:27:56;97714.44;;;24.12;87.26
16806;BME280;8520;50.102;20.010;2022-08-21T08:30:45;97719.72;;;23.74;89.55
16806;BME280;8520;50.102;20.010;2022-08-21T08:33:34;97711.44;;;24.28;86.70
16806;BME280;8520;50.102;20.010;2022-08-21T08:36:31;97711.38;;;24.80;85.74
16806;BME280;8520;50.102;20.010;2022-08-21T08:39:21;97712.16;;;24.90;85.63
16806;BME280;8520;50.102;20.010;2022-08-21T08:42:20;97719.00;;;24.43;86.90
16806;BME280;8520;50.102;20.010;2022-08-21T08:45:22;97711.28;;;24.43;86.87
16806;BME280;8520;50.102;20.010;2022-08-21T08:48:14;97712.44;;;25.21;84.07
16806;BME280;8520;50.102;20.010;2022-08-21T08:51:08;97706.81;;;25.21;84.35
16806;BME280;8520;50.102;20.010;2022-08-21T08:54:03;97712.38;;;25.48;83.15
16806;BME280;8520;50.102;20.010;2022-08-21T08:56:57;97704.41;;;25.64;82.52
16806;BME280;8520;50.102;20.010;2022-08-21T08:59:48;97706.50;;;25.17;84.34
16806;BME280;8520;50.102;20.010;2022-08-21T09:02:43;97715.22;;;24.84;84.95
16806;BME280;8520;50.102;20.010;2022-08-21T09:05:42;97700.16;;;25.82;81.51
16806;BME280;8520;50.102;20.010;2022-08-21T09:08:42;97701.19;;;26.35;79.67
16806;BME280;8520;50.102;20.010;2022-08-21T09:11:42;97710.25;;;25.95;80.00
16806;BME280;8520;50.102;20.010;2022-08-21T09:14:47;97706.84;;;26.35;79.06
16806;BME280;8520;50.102;20.010;2022-08-21T09:17:52;97690.22;;;26.39;79.03
16806;BME280;8520;50.102;20.010;2022-08-21T09:20:52;97690.81;;;26.47;79.03
16806;BME280;8520;50.102;20.010;2022-08-21T09:23:52;97686.94;;;25.85;80.40
16806;BME280;8520;50.102;20.010;2022-08-21T09:26:48;97691.50;;;25.61;81.94
16806;BME280;8520;50.102;20.010;2022-08-21T09:29:43;97686.78;;;25.73;81.48
16806;BME280;8520;50.102;20.010;2022-08-21T09:32:35;97681.59;;;26.18;80.40
16806;BME280;8520;50.102;20.010;2022-08-21T09:35:27;97679.13;;;26.82;78.05
16806;BME280;8520;50.102;20.010;2022-08-21T09:38:25;97677.38;;;26.67;78.80
16806;BME280;8520;50.102;20.010;2022-08-21T09:41:14;97675.69;;;27.24;76.92
16806;BME280;8520;50.102;20.010;2022-08-21T09:44:04;97666.38;;;27.12;77.06
16806;BME280;8520;50.102;20.010;2022-08-21T09:46:52;97671.47;;;27.56;75.96
16806;BME280;8520;50.102;20.010;2022-08-21T09:49:43;97670.06;;;27.88;74.15
16806;BME280;8520;50.102;20.010;2022-08-21T09:52:46;97664.09;;;28.27;73.13
16806;BME280;8520;50.102;20.010;2022-08-21T09:55:48;97664.13;;;28.72;71.63
16806;BME280;8520;50.102;20.010;2022-08-21T09:58:55;97671.19;;;28.94;70.76
16806;BME280;8520;50.102;20.010;2022-08-21T10:01:45;97676.44;;;28.88;70.59
16806;BME280;8520;50.102;20.010;2022-08-21T10:04:35;97671.50;;;28.88;69.85
16806;BME280;8520;50.102;20.010;2022-08-21T10:07:26;97675.25;;;29.14;69.11
16806;BME280;8520;50.102;20.010;2022-08-21T10:10:20;97671.19;;;29.17;68.95
16806;BME280;8520;50.102;20.010;2022-08-21T10:13:13;97673.59;;;28.76;70.10
16806;BME280;8520;50.102;20.010;2022-08-21T10:16:13;97669.16;;;28.85;69.98
16806;BME280;8520;50.102;20.010;2022-08-21T10:19:14;97673.03;;;29.13;69.66
16806;BME280;8520;50.102;20.010;2022-08-21T10:22:14;97673.16;;;29.03;69.50
16806;BME280;8520;50.102;20.010;2022-08-21T10:25:11;97673.88;;;28.80;70.62
16806;BME280;8520;50.102;20.010;2022-08-21T10:28:10;97667.69;;;28.84;70.60
16806;BME280;8520;50.102;20.010;2022-08-21T10:31:09;97670.06;;;29.23;69.59
16806;BME280;8520;50.102;20.010;2022-08-21T10:34:12;97671.47;;;28.20;71.88
16806;BME280;8520;50.102;20.010;2022-08-21T10:37:18;97670.69;;;28.53;71.57
16806;BME280;8520;50.102;20.010;2022-08-21T10:40:15;97668.34;;;28.94;69.89
16806;BME280;8520;50.102;20.010;2022-08-21T10:43:17;97669.56;;;29.38;68.84
16806;BME280;8520;50.102;20.010;2022-08-21T10:46:16;97665.00;;;29.44;69.27
16806;BME280;8520;50.102;20.010;2022-08-21T10:49:17;97662.78;;;29.55;68.70
16806;BME280;8520;50.102;20.010;2022-08-21T10:52:23;97668.56;;;30.06;66.82
16806;BME280;8520;50.102;20.010;2022-08-21T10:55:19;97668.44;;;30.03;66.67
16806;BME280;8520;50.102;20.010;2022-08-21T10:58:12;97672.63;;;30.14;66.93
16806;BME280;8520;50.102;20.010;2022-08-21T11:01:08;97660.00;;;29.80;67.55
16806;BME280;8520;50.102;20.010;2022-08-21T11:04:09;97662.22;;;29.82;68.92
16806;BME280;8520;50.102;20.010;2022-08-21T11:07:03;97657.44;;;29.61;69.89
16806;BME280;8520;50.102;20.010;2022-08-21T11:10:10;97657.47;;;29.49;70.04
16806;BME280;8520;50.102;20.010;2022-08-21T11:13:05;97660.44;;;29.39;69.40
16806;BME280;8520;50.102;20.010;2022-08-21T11:16:02;97656.03;;;29.01;70.16
16806;BME280;8520;50.102;20.010;2022-08-21T11:18:58;97653.53;;;28.96;70.55
16806;BME280;8520;50.102;20.010;2022-08-21T11:21:53;97654.16;;;27.40;74.72
16806;BME280;8520;50.102;20.010;2022-08-21T11:24:51;97657.69;;;27.19;75.49
16806;BME280;8520;50.102;20.010;2022-08-21T11:27:46;97663.16;;;26.46;76.73
16806;BME280;8520;50.102;20.010;2022-08-21T11:30:47;97657.75;;;26.59;76.37
16806;BME280;8520;50.102;20.010;2022-08-21T11:33:47;97653.00;;;26.62;76.83
16806;BME280;8520;50.102;20.010;2022-08-21T11:36:47;97659.28;;;26.22;77.22
16806;BME280;8520;50.102;20.010;2022-08-21T11:39:46;97657.09;;;26.01;77.05
16806;BME280;8520;50.102;20.010;2022-08-21T11:42:44;97668.84;;;26.07;76.42
16806;BME280;8520;50.102;20.010;2022-08-21T11:45:40;97659.56;;;26.55;75.20
16806;BME280;8520;50.102;20.010;2022-08-21T11:48:37;97656.63;;;25.85;77.56
16806;BME280;8520;50.102;20.010;2022-08-21T11:51:33;97662.69;;;25.62;78.01
16806;BME280;8520;50.102;20.010;2022-08-21T11:54:28;97668.41;;;25.26;80.00
16806;BME280;8520;50.102;20.010;2022-08-21T11:57:21;97676.84;;;24.35;83.84
16806;BME280;8520;50.102;20.010;2022-08-21T12:00:16;97665.97;;;25.12;81.85
16806;BME280;8520;50.102;20.010;2022-08-21T12:03:09;97679.44;;;24.23;84.57
16806;BME280;8520;50.102;20.010;2022-08-21T12:06:02;97679.63;;;24.52;84.26
16806;BME280;8520;50.102;20.010;2022-08-21T12:09:00;97677.56;;;24.53;84.63
16806;BME280;8520;50.102;20.010;2022-08-21T12:11:51;97676.56;;;23.96;87.45
16806;BME280;8520;50.102;20.010;2022-08-21T12:14:49;97685.47;;;23.85;88.05
16806;BME280;8520;50.102;20.010;2022-08-21T12:17:40;97684.75;;;22.92;93.50
16806;BME280;8520;50.102;20.010;2022-08-21T12:20:43;97681.50;;;23.04;93.90
16806;BME280;8520;50.102;20.010;2022-08-21T12:23:45;97670.16;;;23.19;93.41
16806;BME280;8520;50.102;20.010;2022-08-21T12:26:49;97665.09;;;23.17;93.88
16806;BME280;8520;50.102;20.010;2022-08-21T12:29:38;97663.50;;;23.07;94.70
16806;BME280;8520;50.102;20.010;2022-08-21T12:32:44;97654.53;;;23.25;93.28
16806;BME280;8520;50.102;20.010;2022-08-21T12:35:42;97659.78;;;22.71;95.24
16806;BME280;8520;50.102;20.010;2022-08-21T12:38:33;97669.50;;;22.78;96.17
16806;BME280;8520;50.102;20.010;2022-08-21T12:41:30;97673.59;;;22.52;97.49
16806;BME280;8520;50.102;20.010;2022-08-21T12:44:27;97681.63;;;22.88;95.98
16806;BME280;8520;50.102;20.010;2022-08-21T12:47:24;97677.06;;;22.68;96.68
16806;BME280;8520;50.102;20.010;2022-08-21T12:50:19;97670.50;;;22.98;95.58
16806;BME280;8520;50.102;20.010;2022-08-21T12:53:12;97669.19;;;22.66;97.89
16806;BME280;8520;50.102;20.010;2022-08-21T12:56:10;97661.34;;;22.65;98.09
16806;BME280;8520;50.102;20.010;2022-08-21T12:59:02;97666.06;;;22.22;100.00
16806;BME280;8520;50.102;20.010;2022-08-21T13:01:53;97655.28;;;22.43;100.00
16806;BME280;8520;50.102;20.010;2022-08-21T13:04:44;97660.59;;;22.32;100.00
16806;BME280;8520;50.102;20.010;2022-08-21T13:07:35;97667.41;;;22.13;100.00
16806;BME280;8520;50.102;20.010;2022-08-21T13:10:27;97666.44;;;22.19;100.00
16806;BME280;8520;50.102;20.010;2022-08-21T13:13:20;97662.66;;;22.31;100.00
16806;BME280;8520;50.102;20.010;2022-08-21T13:16:20;97650.84;;;22.65;100.00
16806;BME280;8520;50.102;20.010;2022-08-21T13:19:11;97655.22;;;22.84;98.46
16806;BME280;8520;50.102;20.010;2022-08-21T13:22:14;97664.81;;;23.06;97.89
16806;BME280;8520;50.102;20.010;2022-08-21T13:25:26;97658.69;;;23.24;95.76
16806;BME280;8520;50.102;20.010;2022-08-21T13:28:15;97666.53;;;23.26;96.22
16806;BME280;8520;50.102;20.010;2022-08-21T13:31:07;97676.91;;;23.58;94.86
16806;BME280;8520;50.102;20.010;2022-08-21T13:33:57;97675.91;;;23.46;94.86
16806;BME280;8520;50.102;20.010;2022-08-21T13:36:47;97675.31;;;24.07;93.45
16806;BME280;8520;50.102;20.010;2022-08-21T13:39:35;97676.19;;;24.27;91.98
16806;BME280;8520;50.102;20.010;2022-08-21T13:42:25;97684.13;;;23.86;93.00
16806;BME280;8520;50.102;20.010;2022-08-21T13:45:18;97685.19;;;23.56;94.85
16806;BME280;8520;50.102;20.010;2022-08-21T13:48:09;97690.13;;;22.73;96.24
16806;BME280;8520;50.102;20.010;2022-08-21T13:50:58;97692.50;;;23.09;95.85
16806;BME280;8520;50.102;20.010;2022-08-21T13:53:50;97687.09;;;22.79;97.71
16806;BME280;8520;50.102;20.010;2022-08-21T13:56:42;97690.56;;;22.94;97.44
16806;BME280;8520;50.102;20.010;2022-08-21T13:59:33;97692.63;;;23.19;96.43
16806;BME280;8520;50.102;20.010;2022-08-21T14:02:23;97689.59;;;23.24;96.19
16806;BME280;8520;50.102;20.010;2022-08-21T14:05:16;97686.72;;;23.07;96.46
16806;BME280;8520;50.102;20.010;2022-08-21T14:08:15;97691.25;;;22.70;98.18
16806;BME280;8520;50.102;20.010;2022-08-21T14:11:17;97694.75;;;23.11;96.91
16806;BME280;8520;50.102;20.010;2022-08-21T14:14:16;97678.41;;;23.17;97.03
16806;BME280;8520;50.102;20.010;2022-08-21T14:17:11;97679.38;;;23.12;96.43
16806;BME280;8520;50.102;20.010;2022-08-21T14:20:27;97670.56;;;22.90;96.93
16806;BME280;8520;50.102;20.010;2022-08-21T14:23:24;97671.38;;;22.76;97.09
16806;BME280;8520;50.102;20.010;2022-08-21T14:26:18;97668.16;;;22.87;97.07
16806;BME280;8520;50.102;20.010;2022-08-21T14:29:08;97677.19;;;22.78;97.52
16806;BME280;8520;50.102;20.010;2022-08-21T14:31:58;97680.03;;;22.70;98.17
16806;BME280;8520;50.102;20.010;2022-08-21T14:34:50;97691.25;;;22.70;98.06
16806;BME280;8520;50.102;20.010;2022-08-21T14:37:41;97690.44;;;22.85;97.57
16806;BME280;8520;50.102;20.010;2022-08-21T14:40:33;97690.28;;;23.08;96.46
16806;BME280;8520;50.102;20.010;2022-08-21T14:43:24;97688.59;;;23.30;95.32
16806;BME280;8520;50.102;20.010;2022-08-21T14:46:17;97683.50;;;23.36;93.95
16806;BME280;8520;50.102;20.010;2022-08-21T14:49:08;97708.31;;;23.47;93.66
16806;BME280;8520;50.102;20.010;2022-08-21T14:51:57;97695.56;;;23.71;93.11
16806;BME280;8520;50.102;20.010;2022-08-21T14:54:45;97703.53;;;23.15;94.97
16806;BME280;8520;50.102;20.010;2022-08-21T14:57:34;97697.53;;;22.86;96.41
16806;BME280;8520;50.102;20.010;2022-08-21T15:00:25;97689.88;;;22.86;96.17
16806;BME280;8520;50.102;20.010;2022-08-21T15:03:22;97701.22;;;22.23;99.58
16806;BME280;8520;50.102;20.010;2022-08-21T15:06:10;97700.66;;;22.25;99.70
16806;BME280;8520;50.102;20.010;2022-08-21T15:08:59;97707.41;;;22.62;98.97